sensor_id;sensor_type;location;lat;lon;timestamp;pressure;altitude;pressure_sealevel;temperature;humidity
82033;BME280;71595;52.180;4.512;2023-09-07T00:01:31;102066.44;;;19.32;81.15
82033;BME280;71595;52.180;4.512;2023-09-07T00:03:57;102063.66;;;19.32;80.84
82033;BME280;71595;52.180;4.512;2023-09-07T00:06:22;102060.41;;;19.30;81.18
82033;BME280;71595;52.180;4.512;2023-09-07T00:08:47;102053.94;;;19.26;81.19
82033;BME280;71595;52.180;4.512;2023-09-07T00:11:13;102047.97;;;19.27;80.96
82033;BME280;71595;52.180;4.512;2023-09-07T00:13:38;102049.06;;;19.22;80.83
82033;BME280;71595;52.180;4.512;2023-09-07T00:16:05;102049.44;;;19.21;81.11
82033;BME280;71595;52.180;4.512;2023-09-07T00:18:31;102054.59;;;19.19;81.37
82033;BME280;71595;52.180;4.512;2023-09-07T00:20:58;102055.41;;;19.19;81.00
82033;BME280;71595;52.180;4.512;2023-09-07T00:23:25;102051.44;;;19.20;81.32
82033;BME280;71595;52.180;4.512;2023-09-07T00:25:50;102046.16;;;19.15;80.93
82033;BME280;71595;52.180;4.512;2023-09-07T00:28:15;102051.44;;;19.20;80.89
82033;BME280;71595;52.180;4.512;2023-09-07T00:30:41;102050.53;;;19.16;80.88
82033;BME280;71595;52.180;4.512;2023-09-07T00:33:07;102056.22;;;19.20;80.75
82033;BME280;71595;52.180;4.512;2023-09-07T00:35:32;102052.16;;;19.17;80.76
82033;BME280;71595;52.180;4.512;2023-09-07T00:37:58;102048.22;;;19.18;80.28
82033;BME280;71595;52.180;4.512;2023-09-07T00:40:23;102049.81;;;19.19;80.20
82033;BME280;71595;52.180;4.512;2023-09-07T00:42:53;102049.81;;;19.19;80.28
82033;BME280;71595;52.180;4.512;2023-09-07T00:45:19;102054.53;;;19.15;80.20
82033;BME280;71595;52.180;4.512;2023-09-07T00:47:45;102050.47;;;19.13;79.85
82033;BME280;71595;52.180;4.512;2023-09-07T00:50:10;102048.84;;;19.12;79.57
82033;BME280;71595;52.180;4.512;2023-09-07T00:52:42;102050.91;;;19.15;79.39
82033;BME280;71595;52.180;4.512;2023-09-07T00:55:08;102037.59;;;19.08;79.31
82033;BME280;71595;52.180;4.512;2023-09-07T00:57:49;102043.72;;;19.14;78.94
82033;BME280;71595;52.180;4.512;2023-09-07T01:00:14;102036.41;;;19.09;79.00
82033;BME280;71595;52.180;4.512;2023-09-07T01:02:40;102030.66;;;19.02;79.15
82033;BME280;71595;52.180;4.512;2023-09-07T01:05:07;102032.16;;;18.96;79.45
82033;BME280;71595;52.180;4.512;2023-09-07T01:07:38;102035.19;;;18.87;79.63
82033;BME280;71595;52.180;4.512;2023-09-07T01:10:11;102032.25;;;18.83;79.69
82033;BME280;71595;52.180;4.512;2023-09-07T01:15:02;102021.38;;;18.78;79.68
82033;BME280;71595;52.180;4.512;2023-09-07T01:17:30;102025.63;;;18.72;79.90
82033;BME280;71595;52.180;4.512;2023-09-07T01:19:56;102028.88;;;18.74;80.07
82033;BME280;71595;52.180;4.512;2023-09-07T01:22:24;102028.81;;;18.71;80.05
82033;BME280;71595;52.180;4.512;2023-09-07T01:24:50;102024.75;;;18.68;80.36
82033;BME280;71595;52.180;4.512;2023-09-07T01:27:20;102023.19;;;18.71;79.99
82033;BME280;71595;52.180;4.512;2023-09-07T01:29:45;102032.03;;;18.73;79.98
82033;BME280;71595;52.180;4.512;2023-09-07T01:32:11;102030.44;;;18.72;79.94
82033;BME280;71595;52.180;4.512;2023-09-07T01:34:37;102031.22;;;18.72;79.91
82033;BME280;71595;52.180;4.512;2023-09-07T01:37:02;102027.69;;;18.75;80.00
82033;BME280;71595;52.180;4.512;2023-09-07T01:39:28;102023.28;;;18.74;79.59
82033;BME280;71595;52.180;4.512;2023-09-07T01:41:53;102024.09;;;18.75;79.73
82033;BME280;71595;52.180;4.512;2023-09-07T01:44:19;102023.72;;;18.76;79.54
82033;BME280;71595;52.180;4.512;2023-09-07T01:46:44;102022.63;;;18.81;79.26
82033;BME280;71595;52.180;4.512;2023-09-07T01:49:10;102020.94;;;18.76;79.22
82033;BME280;71595;52.180;4.512;2023-09-07T01:51:35;102027.34;;;18.77;79.09
82033;BME280;71595;52.180;4.512;2023-09-07T01:54:00;102025.78;;;18.79;79.22
82033;BME280;71595;52.180;4.512;2023-09-07T01:56:26;102028.59;;;18.79;79.02
82033;BME280;71595;52.180;4.512;2023-09-07T01:58:52;102019.31;;;18.75;79.04
82033;BME280;71595;52.180;4.512;2023-09-07T02:01:24;102014.88;;;18.74;78.94
82033;BME280;71595;52.180;4.512;2023-09-07T02:03:50;102020.47;;;18.74;78.78
82033;BME280;71595;52.180;4.512;2023-09-07T02:06:16;102025.63;;;18.72;78.86
82033;BME280;71595;52.180;4.512;2023-09-07T02:08:41;102025.56;;;18.68;78.88
82033;BME280;71595;52.180;4.512;2023-09-07T02:11:19;102022.41;;;18.70;78.61
82033;BME280;71595;52.180;4.512;2023-09-07T02:13:47;102021.88;;;18.64;78.76
82033;BME280;71595;52.180;4.512;2023-09-07T02:16:12;102023.88;;;18.64;78.75
82033;BME280;71595;52.180;4.512;2023-09-07T02:18:37;102023.88;;;18.64;78.83
82033;BME280;71595;52.180;4.512;2023-09-07T02:21:05;102032.53;;;18.59;78.95
82033;BME280;71595;52.180;4.512;2023-09-07T02:23:34;102022.06;;;18.56;79.17
82033;BME280;71595;52.180;4.512;2023-09-07T02:26:00;102025.16;;;18.50;79.43
82033;BME280;71595;52.180;4.512;2023-09-07T02:28:26;102017.94;;;18.49;79.43
82033;BME280;71595;52.180;4.512;2023-09-07T02:30:51;102024.25;;;18.46;79.71
82033;BME280;71595;52.180;4.512;2023-09-07T02:33:17;102019.88;;;18.45;79.59
82033;BME280;71595;52.180;4.512;2023-09-07T02:35:42;102021.84;;;18.45;79.75
82033;BME280;71595;52.180;4.512;2023-09-07T02:38:09;102017.88;;;18.46;79.77
82033;BME280;71595;52.180;4.512;2023-09-07T02:40:43;102007.06;;;18.44;79.66
82033;BME280;71595;52.180;4.512;2023-09-07T02:43:09;102024.25;;;18.46;79.35
82033;BME280;71595;52.180;4.512;2023-09-07T02:45:35;102021.75;;;18.41;79.48
82033;BME280;71595;52.180;4.512;2023-09-07T02:48:00;102026.63;;;18.44;79.60
82033;BME280;71595;52.180;4.512;2023-09-07T02:50:26;102023.84;;;18.44;79.51
82033;BME280;71595;52.180;4.512;2023-09-07T02:52:53;102011.78;;;18.40;79.61
82033;BME280;71595;52.180;4.512;2023-09-07T02:55:18;102018.53;;;18.39;79.59
82033;BME280;71595;52.180;4.512;2023-09-07T02:57:44;102022.50;;;18.38;79.44
82033;BME280;71595;52.180;4.512;2023-09-07T03:00:09;102026.47;;;18.37;79.48
82033;BME280;71595;52.180;4.512;2023-09-07T03:02:36;102028.00;;;18.35;79.82
82033;BME280;71595;52.180;4.512;2023-09-07T03:05:02;102030.38;;;18.32;79.87
82033;BME280;71595;52.180;4.512;2023-09-07T03:07:33;102025.59;;;18.33;79.76
82033;BME280;71595;52.180;4.512;2023-09-07T03:09:59;102028.66;;;18.28;79.90
82033;BME280;71595;52.180;4.512;2023-09-07T03:12:24;102029.47;;;18.28;79.90
82033;BME280;71595;52.180;4.512;2023-09-07T03:14:50;102027.75;;;18.24;79.98
82033;BME280;71595;52.180;4.512;2023-09-07T03:17:16;102031.81;;;18.26;79.98
82033;BME280;71595;52.180;4.512;2023-09-07T03:19:42;102038.03;;;18.20;80.12
82033;BME280;71595;52.180;4.512;2023-09-07T03:22:07;102021.13;;;18.12;80.25
82033;BME280;71595;52.180;4.512;2023-09-07T03:24:34;102023.09;;;18.12;80.22
82033;BME280;71595;52.180;4.512;2023-09-07T03:26:59;102021.00;;;18.09;80.67
82033;BME280;71595;52.180;4.512;2023-09-07T03:29:24;102018.59;;;18.07;80.59
82033;BME280;71595;52.180;4.512;2023-09-07T03:31:50;102015.28;;;18.02;80.59
82033;BME280;71595;52.180;4.512;2023-09-07T03:34:15;102020.88;;;18.02;80.61
82033;BME280;71595;52.180;4.512;2023-09-07T03:36:40;102012.38;;;17.98;80.62
82033;BME280;71595;52.180;4.512;2023-09-07T03:39:06;102014.44;;;18.01;80.37
82033;BME280;71595;52.180;4.512;2023-09-07T03:41:33;102014.28;;;17.94;80.73
82033;BME280;71595;52.180;4.512;2023-09-07T03:43:59;102011.94;;;17.96;80.93
82033;BME280;71595;52.180;4.512;2023-09-07T03:46:26;102025.09;;;17.95;80.44
82033;BME280;71595;52.180;4.512;2023-09-07T03:48:51;102017.53;;;17.96;80.61
82033;BME280;71595;52.180;4.512;2023-09-07T03:51:17;102010.78;;;17.97;80.47
82033;BME280;71595;52.180;4.512;2023-09-07T03:53:42;102023.84;;;17.93;80.50
82033;BME280;71595;52.180;4.512;2023-09-07T03:56:08;102018.97;;;17.90;80.76
82033;BME280;71595;52.180;4.512;2023-09-07T03:58:33;102021.56;;;17.83;80.69
82033;BME280;71595;52.180;4.512;2023-09-07T04:00:59;102023.38;;;17.75;81.03
82033;BME280;71595;52.180;4.512;2023-09-07T04:03:26;102027.06;;;17.79;80.54
82033;BME280;71595;52.180;4.512;2023-09-07T04:05:51;102019.31;;;17.72;81.03
82033;BME280;71595;52.180;4.512;2023-09-07T04:08:18;102030.03;;;17.70;80.87
82033;BME280;71595;52.180;4.512;2023-09-07T04:10:43;102027.13;;;17.67;80.89
82033;BME280;71595;52.180;4.512;2023-09-07T04:13:09;102035.00;;;17.61;81.24
82033;BME280;71595;52.180;4.512;2023-09-07T04:15:39;102027.78;;;17.60;81.22
82033;BME280;71595;52.180;4.512;2023-09-07T04:18:06;102022.63;;;17.62;81.35
82033;BME280;71595;52.180;4.512;2023-09-07T04:20:31;102036.88;;;17.57;81.30
82033;BME280;71595;52.180;4.512;2023-09-07T04:22:56;102038.03;;;17.56;81.44
82033;BME280;71595;52.180;4.512;2023-09-07T04:25:22;102038.03;;;17.56;81.35
82033;BME280;71595;52.180;4.512;2023-09-07T04:27:47;102034.78;;;17.54;81.67
82033;BME280;71595;52.180;4.512;2023-09-07T04:30:13;102035.22;;;17.56;81.61
82033;BME280;71595;52.180;4.512;2023-09-07T04:32:38;102036.78;;;17.53;81.63
82033;BME280;71595;52.180;4.512;2023-09-07T04:35:04;102037.50;;;17.50;81.62
82033;BME280;71595;52.180;4.512;2023-09-07T04:37:29;102034.50;;;17.43;81.58
82033;BME280;71595;52.180;4.512;2023-09-07T04:39:54;102039.09;;;17.35;82.18
82033;BME280;71595;52.180;4.512;2023-09-07T04:42:20;102041.88;;;17.35;82.08
82033;BME280;71595;52.180;4.512;2023-09-07T04:44:49;102041.44;;;17.33;81.93
82033;BME280;71595;52.180;4.512;2023-09-07T04:47:17;102042.94;;;17.31;82.12
82033;BME280;71595;52.180;4.512;2023-09-07T04:49:48;102043.16;;;17.38;82.04
82033;BME280;71595;52.180;4.512;2023-09-07T04:52:14;102047.94;;;17.37;82.15
82033;BME280;71595;52.180;4.512;2023-09-07T04:54:39;102051.81;;;17.33;81.85
82033;BME280;71595;52.180;4.512;2023-09-07T04:57:05;102053.03;;;17.35;82.12
82033;BME280;71595;52.180;4.512;2023-09-07T04:59:30;102051.19;;;17.39;82.23
82033;BME280;71595;52.180;4.512;2023-09-07T05:01:59;102053.03;;;17.35;81.95
82033;BME280;71595;52.180;4.512;2023-09-07T05:04:28;102054.13;;;17.31;82.34
82033;BME280;71595;52.180;4.512;2023-09-07T05:06:54;102051.50;;;17.22;82.06
82033;BME280;71595;52.180;4.512;2023-09-07T05:09:19;102052.31;;;17.22;82.32
82033;BME280;71595;52.180;4.512;2023-09-07T05:11:45;102063.38;;;17.19;82.41
82033;BME280;71595;52.180;4.512;2023-09-07T05:14:11;102063.47;;;17.22;82.69
82033;BME280;71595;52.180;4.512;2023-09-07T05:16:36;102062.31;;;17.23;82.61
82033;BME280;71595;52.180;4.512;2023-09-07T05:19:02;102067.53;;;17.25;82.60
82033;BME280;71595;52.180;4.512;2023-09-07T05:21:27;102065.09;;;17.23;82.69
82033;BME280;71595;52.180;4.512;2023-09-07T05:23:52;102065.47;;;17.22;82.44
82033;BME280;71595;52.180;4.512;2023-09-07T05:26:22;102068.25;;;17.22;82.87
82033;BME280;71595;52.180;4.512;2023-09-07T05:28:49;102065.56;;;17.25;82.73
82033;BME280;71595;52.180;4.512;2023-09-07T05:31:14;102064.84;;;17.29;82.56
82033;BME280;71595;52.180;4.512;2023-09-07T05:33:40;102065.41;;;17.34;82.59
82033;BME280;71595;52.180;4.512;2023-09-07T05:36:05;102062.34;;;17.39;82.29
82033;BME280;71595;52.180;4.512;2023-09-07T05:38:30;102064.88;;;17.45;81.87
82033;BME280;71595;52.180;4.512;2023-09-07T05:40:56;102068.94;;;17.47;82.12
82033;BME280;71595;52.180;4.512;2023-09-07T05:43:21;102076.25;;;17.52;81.65
82033;BME280;71595;52.180;4.512;2023-09-07T05:45:47;102069.94;;;17.55;81.65
82033;BME280;71595;52.180;4.512;2023-09-07T05:48:13;102073.53;;;17.55;81.88
82033;BME280;71595;52.180;4.512;2023-09-07T05:50:40;102068.66;;;17.52;82.28
82033;BME280;71595;52.180;4.512;2023-09-07T05:53:05;102072.72;;;17.55;81.87
82033;BME280;71595;52.180;4.512;2023-09-07T05:55:37;102070.81;;;17.59;81.88
82033;BME280;71595;52.180;4.512;2023-09-07T05:58:07;102074.91;;;17.61;82.00
82033;BME280;71595;52.180;4.512;2023-09-07T06:00:34;102070.03;;;17.58;82.07
82033;BME280;71595;52.180;4.512;2023-09-07T06:03:00;102073.03;;;17.66;82.32
82033;BME280;71595;52.180;4.512;2023-09-07T06:05:26;102074.25;;;17.68;82.33
82033;BME280;71595;52.180;4.512;2023-09-07T06:07:52;102082.84;;;17.75;82.31
82033;BME280;71595;52.180;4.512;2023-09-07T06:10:17;102081.06;;;17.83;82.30
82033;BME280;71595;52.180;4.512;2023-09-07T06:12:44;102082.75;;;17.88;82.43
82033;BME280;71595;52.180;4.512;2023-09-07T06:15:10;102084.44;;;17.89;82.66
82033;BME280;71595;52.180;4.512;2023-09-07T06:17:35;102090.19;;;17.96;82.86
82033;BME280;71595;52.180;4.512;2023-09-07T06:20:01;102096.69;;;18.00;82.50
82033;BME280;71595;52.180;4.512;2023-09-07T06:22:26;102098.41;;;18.05;81.94
82033;BME280;71595;52.180;4.512;2023-09-07T06:24:52;102100.09;;;18.09;81.69
82033;BME280;71595;52.180;4.512;2023-09-07T06:27:17;102100.63;;;18.15;81.33
82033;BME280;71595;52.180;4.512;2023-09-07T06:29:42;102103.53;;;18.19;81.24
82033;BME280;71595;52.180;4.512;2023-09-07T06:32:08;102097.31;;;18.25;80.98
82033;BME280;71595;52.180;4.512;2023-09-07T06:34:33;102097.84;;;18.31;80.81
82033;BME280;71595;52.180;4.512;2023-09-07T06:36:58;102095.94;;;18.35;80.99
82033;BME280;71595;52.180;4.512;2023-09-07T06:39:24;102096.84;;;18.39;80.99
82033;BME280;71595;52.180;4.512;2023-09-07T06:41:50;102096.19;;;18.46;80.58
82033;BME280;71595;52.180;4.512;2023-09-07T06:44:16;102106.72;;;18.53;80.53
82033;BME280;71595;52.180;4.512;2023-09-07T06:46:41;102104.38;;;18.55;80.59
82033;BME280;71595;52.180;4.512;2023-09-07T06:49:07;102096.88;;;18.59;80.65
82033;BME280;71595;52.180;4.512;2023-09-07T06:51:33;102099.03;;;18.65;80.69
82033;BME280;71595;52.180;4.512;2023-09-07T06:53:58;102108.78;;;18.72;80.76
82033;BME280;71595;52.180;4.512;2023-09-07T06:56:24;102099.28;;;18.76;80.94
82033;BME280;71595;52.180;4.512;2023-09-07T06:58:49;102099.41;;;18.83;80.90
82033;BME280;71595;52.180;4.512;2023-09-07T07:01:15;102098.72;;;18.86;80.83
82033;BME280;71595;52.180;4.512;2023-09-07T07:03:41;102104.47;;;18.94;80.84
82033;BME280;71595;52.180;4.512;2023-09-07T07:06:06;102106.63;;;19.00;80.24
82033;BME280;71595;52.180;4.512;2023-09-07T07:08:32;102097.53;;;19.07;80.37
82033;BME280;71595;52.180;4.512;2023-09-07T07:10:57;102099.97;;;19.09;79.51
82033;BME280;71595;52.180;4.512;2023-09-07T07:13:22;102100.94;;;19.16;78.74
82033;BME280;71595;52.180;4.512;2023-09-07T07:15:48;102102.63;;;19.21;78.81
82033;BME280;71595;52.180;4.512;2023-09-07T07:18:13;102106.38;;;19.29;78.76
82033;BME280;71595;52.180;4.512;2023-09-07T07:20:40;102102.84;;;19.32;78.56
82033;BME280;71595;52.180;4.512;2023-09-07T07:23:06;102105.38;;;19.37;78.61
82033;BME280;71595;52.180;4.512;2023-09-07T07:25:34;102098.28;;;19.43;78.19
82033;BME280;71595;52.180;4.512;2023-09-07T07:28:01;102095.19;;;19.48;78.12
82033;BME280;71595;52.180;4.512;2023-09-07T07:30:30;102096.13;;;19.56;77.67
82033;BME280;71595;52.180;4.512;2023-09-07T07:32:56;102097.00;;;19.60;77.67
82033;BME280;71595;52.180;4.512;2023-09-07T07:35:22;102094.69;;;19.66;77.55
82033;BME280;71595;52.180;4.512;2023-09-07T07:37:49;102091.59;;;19.71;77.01
82033;BME280;71595;52.180;4.512;2023-09-07T07:40:14;102093.25;;;19.75;76.86
82033;BME280;71595;52.180;4.512;2023-09-07T07:42:40;102102.28;;;19.85;76.86
82033;BME280;71595;52.180;4.512;2023-09-07T07:45:06;102098.81;;;19.91;76.58
82033;BME280;71595;52.180;4.512;2023-09-07T07:47:31;102095.31;;;19.98;75.89
82033;BME280;71595;52.180;4.512;2023-09-07T07:49:57;102095.78;;;20.04;75.31
82033;BME280;71595;52.180;4.512;2023-09-07T07:52:22;102087.44;;;20.07;75.06
82033;BME280;71595;52.180;4.512;2023-09-07T07:54:47;102085.13;;;20.13;74.67
82033;BME280;71595;52.180;4.512;2023-09-07T07:57:13;102085.25;;;20.20;74.17
82033;BME280;71595;52.180;4.512;2023-09-07T07:59:38;102084.53;;;20.27;73.19
82033;BME280;71595;52.180;4.512;2023-09-07T08:02:03;102073.41;;;20.31;73.45
82033;BME280;71595;52.180;4.512;2023-09-07T08:04:31;102075.88;;;20.36;73.09
82033;BME280;71595;52.180;4.512;2023-09-07T08:06:57;102075.53;;;20.41;73.03
82033;BME280;71595;52.180;4.512;2023-09-07T08:09:29;102078.47;;;20.48;72.93
82033;BME280;71595;52.180;4.512;2023-09-07T08:11:54;102077.75;;;20.55;73.29
82033;BME280;71595;52.180;4.512;2023-09-07T08:14:21;102070.63;;;20.61;72.87
82033;BME280;71595;52.180;4.512;2023-09-07T08:16:47;102071.56;;;20.69;72.21
82033;BME280;71595;52.180;4.512;2023-09-07T08:19:13;102081.66;;;20.73;72.24
82033;BME280;71595;52.180;4.512;2023-09-07T08:21:39;102075.69;;;20.78;71.27
82033;BME280;71595;52.180;4.512;2023-09-07T08:24:07;102070.97;;;20.86;70.40
82033;BME280;71595;52.180;4.512;2023-09-07T08:26:33;102077.50;;;20.94;70.27
82033;BME280;71595;52.180;4.512;2023-09-07T08:28:58;102077.19;;;20.99;69.14
82033;BME280;71595;52.180;4.512;2023-09-07T08:31:23;102066.00;;;21.03;68.39
82033;BME280;71595;52.180;4.512;2023-09-07T08:33:49;102061.22;;;21.07;68.32
82033;BME280;71595;52.180;4.512;2023-09-07T08:36:16;102065.72;;;21.15;68.59
82033;BME280;71595;52.180;4.512;2023-09-07T08:38:47;102062.56;;;21.20;68.48
82033;BME280;71595;52.180;4.512;2023-09-07T08:41:13;102066.66;;;21.26;68.05
82033;BME280;71595;52.180;4.512;2023-09-07T08:43:44;102065.13;;;21.32;67.82
82033;BME280;71595;52.180;4.512;2023-09-07T08:46:19;102061.97;;;21.37;68.26
82033;BME280;71595;52.180;4.512;2023-09-07T08:48:49;102063.59;;;21.42;68.79
82033;BME280;71595;52.180;4.512;2023-09-07T08:51:15;102062.47;;;21.47;68.21
82033;BME280;71595;52.180;4.512;2023-09-07T08:53:42;102063.34;;;21.51;68.07
82033;BME280;71595;52.180;4.512;2023-09-07T08:56:14;102065.44;;;21.61;68.59
82033;BME280;71595;52.180;4.512;2023-09-07T08:58:41;102061.47;;;21.66;67.71
82033;BME280;71595;52.180;4.512;2023-09-07T09:01:07;102055.50;;;21.71;67.91
82033;BME280;71595;52.180;4.512;2023-09-07T09:03:35;102056.38;;;21.79;67.49
82033;BME280;71595;52.180;4.512;2023-09-07T09:06:00;102056.00;;;21.84;67.78
82033;BME280;71595;52.180;4.512;2023-09-07T09:08:26;102048.03;;;21.89;66.98
82033;BME280;71595;52.180;4.512;2023-09-07T09:10:59;102038.84;;;21.96;65.96
82033;BME280;71595;52.180;4.512;2023-09-07T09:13:30;102047.34;;;22.03;66.32
82033;BME280;71595;52.180;4.512;2023-09-07T09:15:58;102041.34;;;22.08;65.30
82033;BME280;71595;52.180;4.512;2023-09-07T09:18:24;102042.59;;;22.15;64.49
82033;BME280;71595;52.180;4.512;2023-09-07T09:20:52;102044.66;;;22.21;63.99
82033;BME280;71595;52.180;4.512;2023-09-07T09:23:17;102049.09;;;22.26;65.17
82033;BME280;71595;52.180;4.512;2023-09-07T09:25:43;102053.19;;;22.32;65.50
82033;BME280;71595;52.180;4.512;2023-09-07T09:28:11;102034.75;;;22.38;65.41
82033;BME280;71595;52.180;4.512;2023-09-07T09:30:37;102043.63;;;22.44;65.12
82033;BME280;71595;52.180;4.512;2023-09-07T09:33:03;102044.03;;;22.50;64.99
82033;BME280;71595;52.180;4.512;2023-09-07T09:35:32;102042.06;;;22.54;64.08
82033;BME280;71595;52.180;4.512;2023-09-07T09:38:01;102041.28;;;22.60;63.89
82033;BME280;71595;52.180;4.512;2023-09-07T09:40:32;102047.75;;;22.68;63.69
82033;BME280;71595;52.180;4.512;2023-09-07T09:43:01;102046.97;;;22.71;63.74
82033;BME280;71595;52.180;4.512;2023-09-07T09:45:27;102042.97;;;22.76;64.11
82033;BME280;71595;52.180;4.512;2023-09-07T09:47:54;102053.44;;;22.83;63.08
82033;BME280;71595;52.180;4.512;2023-09-07T09:50:22;102050.25;;;22.84;63.69
82033;BME280;71595;52.180;4.512;2023-09-07T09:52:47;102050.28;;;22.91;63.33
82033;BME280;71595;52.180;4.512;2023-09-07T09:55:13;102051.13;;;22.99;63.01
82033;BME280;71595;52.180;4.512;2023-09-07T09:57:41;102049.53;;;23.05;62.02
82033;BME280;71595;52.180;4.512;2023-09-07T10:00:07;102040.72;;;23.10;61.82
82033;BME280;71595;52.180;4.512;2023-09-07T10:02:44;102052.00;;;23.18;61.44
82033;BME280;71595;52.180;4.512;2023-09-07T10:05:10;102046.38;;;23.25;61.40
82033;BME280;71595;52.180;4.512;2023-09-07T10:07:43;102041.59;;;23.36;60.65
82033;BME280;71595;52.180;4.512;2023-09-07T10:10:18;102048.84;;;23.44;60.27
82033;BME280;71595;52.180;4.512;2023-09-07T10:12:45;102042.41;;;23.47;60.03
82033;BME280;71595;52.180;4.512;2023-09-07T10:15:21;102045.25;;;23.55;60.48
82033;BME280;71595;52.180;4.512;2023-09-07T10:17:47;102038.41;;;23.63;59.91
82033;BME280;71595;52.180;4.512;2023-09-07T10:20:18;102030.38;;;23.68;60.24
82033;BME280;71595;52.180;4.512;2023-09-07T10:22:44;102025.50;;;23.76;60.37
82033;BME280;71595;52.180;4.512;2023-09-07T10:25:23;102031.56;;;23.82;60.17
82033;BME280;71595;52.180;4.512;2023-09-07T10:27:49;102031.19;;;23.87;59.71
82033;BME280;71595;52.180;4.512;2023-09-07T10:30:14;102028.75;;;23.93;57.90
82033;BME280;71595;52.180;4.512;2023-09-07T10:32:45;102024.34;;;23.99;57.58
82033;BME280;71595;52.180;4.512;2023-09-07T10:35:19;102025.94;;;24.03;57.46
82033;BME280;71595;52.180;4.512;2023-09-07T10:37:47;102038.44;;;24.10;58.07
82033;BME280;71595;52.180;4.512;2023-09-07T10:40:18;102027.13;;;24.20;57.61
82033;BME280;71595;52.180;4.512;2023-09-07T10:42:43;102033.53;;;24.25;57.71
82033;BME280;71595;52.180;4.512;2023-09-07T10:45:13;102021.47;;;24.31;56.65
82033;BME280;71595;52.180;4.512;2023-09-07T10:47:42;102026.28;;;24.34;56.28
82033;BME280;71595;52.180;4.512;2023-09-07T10:50:10;102025.06;;;24.39;56.68
82033;BME280;71595;52.180;4.512;2023-09-07T10:52:43;102016.59;;;24.43;56.31
82033;BME280;71595;52.180;4.512;2023-09-07T10:55:10;102024.63;;;24.55;55.51
82033;BME280;71595;52.180;4.512;2023-09-07T10:57:45;102025.41;;;24.63;54.83
82033;BME280;71595;52.180;4.512;2023-09-07T11:00:12;102018.16;;;24.65;55.93
82033;BME280;71595;52.180;4.512;2023-09-07T11:02:39;102022.97;;;24.72;55.75
82033;BME280;71595;52.180;4.512;2023-09-07T11:05:05;102015.72;;;24.74;56.23
82033;BME280;71595;52.180;4.512;2023-09-07T11:07:31;102009.22;;;24.81;56.35
82033;BME280;71595;52.180;4.512;2023-09-07T11:09:58;102019.66;;;24.88;55.66
82033;BME280;71595;52.180;4.512;2023-09-07T11:12:23;102011.56;;;24.93;55.04
82033;BME280;71595;52.180;4.512;2023-09-07T11:14:50;102005.91;;;24.93;54.46
82033;BME280;71595;52.180;4.512;2023-09-07T11:17:16;102009.94;;;25.00;53.24
82033;BME280;71595;52.180;4.512;2023-09-07T11:19:41;102000.22;;;25.01;53.92
82033;BME280;71595;52.180;4.512;2023-09-07T11:22:09;102000.19;;;25.08;52.89
82033;BME280;71595;52.180;4.512;2023-09-07T11:24:35;101988.03;;;25.18;51.77
82033;BME280;71595;52.180;4.512;2023-09-07T11:27:01;101990.03;;;25.21;52.08
82033;BME280;71595;52.180;4.512;2023-09-07T11:29:31;101985.53;;;25.27;51.71
82033;BME280;71595;52.180;4.512;2023-09-07T11:32:10;101981.88;;;25.30;52.07
82033;BME280;71595;52.180;4.512;2023-09-07T11:34:46;101973.41;;;25.34;52.13
82033;BME280;71595;52.180;4.512;2023-09-07T11:37:12;101976.16;;;25.41;51.59
82033;BME280;71595;52.180;4.512;2023-09-07T11:39:38;101974.06;;;25.49;50.52
82033;BME280;71595;52.180;4.512;2023-09-07T11:42:03;101960.31;;;25.55;50.33
82033;BME280;71595;52.180;4.512;2023-09-07T11:44:29;101965.91;;;25.58;50.31
82033;BME280;71595;52.180;4.512;2023-09-07T11:46:54;101961.84;;;25.63;49.27
82033;BME280;71595;52.180;4.512;2023-09-07T11:49:19;101954.13;;;25.67;49.87
82033;BME280;71595;52.180;4.512;2023-09-07T11:51:52;101963.41;;;25.68;49.59
82033;BME280;71595;52.180;4.512;2023-09-07T11:54:18;101964.56;;;25.77;49.09
82033;BME280;71595;52.180;4.512;2023-09-07T11:56:43;101957.63;;;25.82;48.63
82033;BME280;71595;52.180;4.512;2023-09-07T11:59:10;101956.41;;;25.83;49.12
82033;BME280;71595;52.180;4.512;2023-09-07T12:01:36;101961.59;;;25.88;49.09
82033;BME280;71595;52.180;4.512;2023-09-07T12:04:02;101956.72;;;25.92;48.50
82033;BME280;71595;52.180;4.512;2023-09-07T12:06:29;101956.69;;;25.99;47.87
82033;BME280;71595;52.180;4.512;2023-09-07T12:09:05;101958.63;;;26.06;50.26
82033;BME280;71595;52.180;4.512;2023-09-07T12:11:34;101947.25;;;26.10;47.77
82033;BME280;71595;52.180;4.512;2023-09-07T12:14:00;101946.41;;;26.13;47.28
82033;BME280;71595;52.180;4.512;2023-09-07T12:16:26;101933.09;;;26.13;47.81
82033;BME280;71595;52.180;4.512;2023-09-07T12:18:52;101933.81;;;26.21;48.42
82033;BME280;71595;52.180;4.512;2023-09-07T12:21:17;101932.97;;;26.24;48.10
82033;BME280;71595;52.180;4.512;2023-09-07T12:23:42;101939.78;;;26.27;48.04
82033;BME280;71595;52.180;4.512;2023-09-07T12:26:08;101930.44;;;26.30;46.63
82033;BME280;71595;52.180;4.512;2023-09-07T12:28:34;101930.84;;;26.32;46.11
82033;BME280;71595;52.180;4.512;2023-09-07T12:30:59;101927.97;;;26.35;45.41
82033;BME280;71595;52.180;4.512;2023-09-07T12:33:24;101935.19;;;26.40;45.27
82033;BME280;71595;52.180;4.512;2023-09-07T12:35:51;101929.53;;;26.40;45.01
82033;BME280;71595;52.180;4.512;2023-09-07T12:38:16;101939.59;;;26.41;44.88
82033;BME280;71595;52.180;4.512;2023-09-07T12:40:46;101927.84;;;26.43;45.40
82033;BME280;71595;52.180;4.512;2023-09-07T12:43:11;101940.78;;;26.44;45.69
82033;BME280;71595;52.180;4.512;2023-09-07T12:45:37;101929.41;;;26.47;44.21
82033;BME280;71595;52.180;4.512;2023-09-07T12:48:02;101929.31;;;26.54;43.92
82033;BME280;71595;52.180;4.512;2023-09-07T12:50:28;101931.72;;;26.56;45.34